createdAt,value
2018-07-11T00:00:11.977Z,82.74
2018-07-11T00:02:40.099Z,83.31
2018-07-11T00:05:08.168Z,83.29
2018-07-11T00:07:36.249Z,82.86
2018-07-11T00:10:04.421Z,83.52
2018-07-11T00:12:32.560Z,83.11
2018-07-11T00:15:00.689Z,83.37
2018-07-11T00:17:28.713Z,82.88
2018-07-11T00:19:56.884Z,82.59
2018-07-11T00:22:25.006Z,82.96
2018-07-11T00:24:53.099Z,82.87
2018-07-11T00:27:21.193Z,83.55
2018-07-11T00:29:49.300Z,83.29
2018-07-11T00:32:17.481Z,83.42
2018-07-11T00:34:45.614Z,83.32
2018-07-11T00:37:13.827Z,83.10
2018-07-11T00:39:42.819Z,83.37
2018-07-11T00:42:10.951Z,83.03
2018-07-11T00:44:39.025Z,82.94
2018-07-11T00:47:07.137Z,82.80
2018-07-11T00:49:35.266Z,83.13
2018-07-11T00:52:03.384Z,82.90
2018-07-11T00:54:31.477Z,82.53
2018-07-11T00:56:59.989Z,82.65
2018-07-11T00:59:29.041Z,83.21
2018-07-11T01:02:02.369Z,83.23
2018-07-11T01:04:30.477Z,83.91
2018-07-11T01:07:00.976Z,83.67
2018-07-11T01:09:30.290Z,83.32
2018-07-11T01:11:58.388Z,83.21
2018-07-11T01:14:26.472Z,83.32
2018-07-11T01:16:54.568Z,83.56
2018-07-11T01:19:22.752Z,83.70
2018-07-11T01:22:01.668Z,83.76
2018-07-11T01:24:30.912Z,83.69
2018-07-11T01:26:59.692Z,83.11
2018-07-11T01:29:27.800Z,83.09
2018-07-11T01:31:55.945Z,82.96
2018-07-11T01:34:24.121Z,82.80
2018-07-11T01:36:52.238Z,82.30
2018-07-11T01:39:20.363Z,82.30
2018-07-11T01:41:48.468Z,82.94
2018-07-11T01:44:16.580Z,82.80
2018-07-11T01:46:46.285Z,82.61
2018-07-11T01:49:14.408Z,82.88
2018-07-11T01:51:54.076Z,83.04
2018-07-11T01:54:22.201Z,83.11
2018-07-11T01:56:50.328Z,82.74
2018-07-11T01:59:18.448Z,82.63
2018-07-11T02:01:46.549Z,83.35
2018-07-11T02:04:14.667Z,82.88
2018-07-11T02:06:43.076Z,83.11
2018-07-11T02:09:11.210Z,83.13
2018-07-11T02:11:39.315Z,83.09
2018-07-11T02:14:07.601Z,82.91
2018-07-11T02:16:36.402Z,82.78
2018-07-11T02:19:04.559Z,82.94
2018-07-11T02:21:32.680Z,83.32
2018-07-11T02:24:03.798Z,83.64
2018-07-11T02:26:31.969Z,83.67
2018-07-11T02:29:00.486Z,83.35
2018-07-11T02:31:29.180Z,83.03
2018-07-11T02:33:57.328Z,82.82
2018-07-11T02:36:25.448Z,83.48
2018-07-11T02:38:53.601Z,83.98
2018-07-11T02:41:21.880Z,83.80
2018-07-11T02:43:50.021Z,83.14
2018-07-11T02:46:20.090Z,83.79
2018-07-11T02:48:48.239Z,83.76
2018-07-11T02:51:16.432Z,83.60
2018-07-11T02:53:44.592Z,84.16
2018-07-11T02:56:12.765Z,84.61
2018-07-11T02:58:40.944Z,84.72
2018-07-11T03:01:09.104Z,84.97
2018-07-11T03:03:37.268Z,85.07
2018-07-11T03:06:05.424Z,84.81
2018-07-11T03:08:38.712Z,85.33
2018-07-11T03:11:06.944Z,85.76
2018-07-11T03:13:35.227Z,85.94
2018-07-11T03:16:03.394Z,85.76
2018-07-11T03:18:31.784Z,86.38
2018-07-11T03:21:00.297Z,86.13
2018-07-11T03:23:28.428Z,86.48
2018-07-11T03:25:56.527Z,86.53
2018-07-11T03:28:24.664Z,87.01
2018-07-11T03:30:52.808Z,87.20
2018-07-11T03:33:20.955Z,87.68
2018-07-11T03:35:49.076Z,88.02
2018-07-11T03:38:17.229Z,88.25
2018-07-11T03:40:45.345Z,87.90
2018-07-11T03:43:13.479Z,88.41
2018-07-11T03:45:41.642Z,88.70
2018-07-11T03:48:09.752Z,88.44
2018-07-11T03:50:38.258Z,88.83
2018-07-11T03:53:06.861Z,88.83
2018-07-11T03:55:34.964Z,88.54
2018-07-11T03:58:04.417Z,88.49
2018-07-11T04:00:32.752Z,88.57
2018-07-11T04:03:00.887Z,88.73
2018-07-11T04:05:28.991Z,89.00
2018-07-11T04:07:57.141Z,89.05
2018-07-11T04:10:25.291Z,89.26
2018-07-11T04:12:57.857Z,88.93
2018-07-11T04:15:26.027Z,89.37
2018-07-11T04:17:54.137Z,89.53
2018-07-11T04:20:22.287Z,89.08
2018-07-11T04:22:51.052Z,89.62
2018-07-11T04:25:19.358Z,89.43
2018-07-11T04:27:47.747Z,89.11
2018-07-11T04:30:16.215Z,89.17
2018-07-11T04:32:44.350Z,89.38
2018-07-11T04:35:12.473Z,89.48
2018-07-11T04:37:40.547Z,89.61
2018-07-11T04:40:08.747Z,89.55
2018-07-11T04:42:36.901Z,89.14
2018-07-11T04:45:05.067Z,89.21
2018-07-11T04:47:33.218Z,89.64
2018-07-11T04:50:01.373Z,89.62
2018-07-11T04:52:29.524Z,90.11
2018-07-11T04:54:57.665Z,89.98
2018-07-11T04:57:25.829Z,89.74
2018-07-11T04:59:54.019Z,89.73
2018-07-11T05:02:22.148Z,89.78
2018-07-11T05:04:50.337Z,89.48
2018-07-11T05:07:18.388Z,89.81
2018-07-11T05:09:46.509Z,90.02
2018-07-11T05:12:14.667Z,90.23
2018-07-11T05:14:42.839Z,90.11
2018-07-11T05:17:10.971Z,90.18
2018-07-11T05:29:25.932Z,89.99
2018-07-11T05:34:33.608Z,90.23
2018-07-11T05:37:01.716Z,90.21
2018-07-11T05:39:29.811Z,90.50
2018-07-11T05:41:58.017Z,90.21
2018-07-11T05:44:26.170Z,90.39
2018-07-11T05:46:58.517Z,90.08
2018-07-11T05:49:26.666Z,89.68
2018-07-11T05:51:54.807Z,90.15
2018-07-11T05:54:22.960Z,89.94
2018-07-11T05:56:51.087Z,89.85
2018-07-11T05:59:19.186Z,89.50
2018-07-11T06:01:47.288Z,89.79
2018-07-11T06:04:15.442Z,89.65
2018-07-11T06:06:43.601Z,89.95
2018-07-11T06:09:11.761Z,89.55
2018-07-11T06:11:39.927Z,89.96
2018-07-11T06:14:08.093Z,90.15
2018-07-11T06:16:36.181Z,90.14
2018-07-11T06:19:04.274Z,90.04
2018-07-11T06:21:32.362Z,89.98
2018-07-11T06:24:00.444Z,89.64
2018-07-11T06:26:28.565Z,89.71
2018-07-11T06:28:56.656Z,90.21
2018-07-11T06:31:24.773Z,89.90
2018-07-11T06:33:52.875Z,90.51
2018-07-11T06:36:20.982Z,90.54
2018-07-11T06:38:49.078Z,90.38
2018-07-11T06:41:17.184Z,90.47
2018-07-11T06:43:45.359Z,90.36
2018-07-11T06:46:13.492Z,90.40
2018-07-11T06:48:41.590Z,90.14
2018-07-11T06:51:09.689Z,90.13
2018-07-11T06:53:37.784Z,90.34
2018-07-11T06:56:05.884Z,90.26
2018-07-11T06:58:33.999Z,90.60
2018-07-11T07:01:02.146Z,90.18
2018-07-11T07:03:30.297Z,90.83
2018-07-11T07:05:58.379Z,90.84
2018-07-11T07:08:26.524Z,90.10
2018-07-11T07:10:54.645Z,90.65
2018-07-11T07:13:22.768Z,90.66
2018-07-11T07:15:50.925Z,90.70
2018-07-11T07:18:19.041Z,90.25
2018-07-11T07:20:47.130Z,89.96
2018-07-11T07:23:15.237Z,90.15
2018-07-11T07:25:43.359Z,89.61
2018-07-11T07:28:11.474Z,89.92
2018-07-11T07:30:39.570Z,89.05
2018-07-11T07:33:07.718Z,89.57
2018-07-11T07:35:35.865Z,89.28
2018-07-11T07:38:03.979Z,89.08
2018-07-11T07:40:32.081Z,89.32
2018-07-11T07:43:00.193Z,89.16
2018-07-11T07:45:28.368Z,89.20
2018-07-11T07:47:56.577Z,89.48
2018-07-11T07:50:24.740Z,89.42
2018-07-11T07:52:52.909Z,89.25
2018-07-11T07:55:21.252Z,89.17
2018-07-11T07:57:49.407Z,89.35
2018-07-11T08:00:17.577Z,88.86
2018-07-11T08:02:45.682Z,88.41
2018-07-11T08:05:13.777Z,88.44
2018-07-11T08:07:41.920Z,88.53
2018-07-11T08:10:10.117Z,89.02
2018-07-11T08:12:38.632Z,88.50
2018-07-11T08:15:07.261Z,88.17
2018-07-11T08:17:35.343Z,88.66
2018-07-11T08:20:03.508Z,88.37
2018-07-11T08:23:45.808Z,89.01
2018-07-11T08:26:25.891Z,88.88
2018-07-11T08:31:11.789Z,89.60
2018-07-11T08:38:12.121Z,89.34
2018-07-11T08:40:54.008Z,88.88
2018-07-11T08:43:42.410Z,88.75
2018-07-11T08:46:28.336Z,88.44
2018-07-11T08:49:41.293Z,88.54
2018-07-11T08:53:22.406Z,88.53
2018-07-11T08:56:02.536Z,88.39
2018-07-11T08:59:58.147Z,89.12
2018-07-11T09:02:51.720Z,89.10
2018-07-11T09:05:28.597Z,88.39
2018-07-11T09:08:09.650Z,88.87
2018-07-11T09:11:57.353Z,88.14
2018-07-11T09:16:38.780Z,88.02
2018-07-11T09:20:19.819Z,88.17
2018-07-11T09:22:58.836Z,88.55
2018-07-11T09:25:26.964Z,87.96
2018-07-11T09:27:55.071Z,88.53
2018-07-11T09:30:23.213Z,88.59
2018-07-11T09:32:51.336Z,88.17
2018-07-11T09:35:19.456Z,88.29
2018-07-11T09:37:47.612Z,88.35
2018-07-11T09:40:15.748Z,88.31
2018-07-11T09:42:43.941Z,88.50
2018-07-11T09:45:12.092Z,89.20
2018-07-11T09:47:40.231Z,89.97
2018-07-11T09:50:08.428Z,90.32
2018-07-11T09:52:36.819Z,90.10
2018-07-11T09:55:04.992Z,89.31
2018-07-11T09:57:33.648Z,89.47
2018-07-11T10:00:01.850Z,89.62
2018-07-11T10:02:30.033Z,88.76
2018-07-11T10:04:58.228Z,88.18
2018-07-11T10:07:26.488Z,87.59
2018-07-11T10:09:54.582Z,86.71
2018-07-11T10:12:22.692Z,85.63
2018-07-11T10:14:50.792Z,85.25
2018-07-11T10:17:18.933Z,84.23
2018-07-11T10:19:47.040Z,83.89
2018-07-11T10:22:15.102Z,83.25
2018-07-11T10:24:43.210Z,83.46
2018-07-11T10:27:11.396Z,84.46
2018-07-11T10:29:39.729Z,84.92
2018-07-11T10:32:07.825Z,85.23
2018-07-11T10:34:35.942Z,85.99
2018-07-11T10:37:04.069Z,86.18
2018-07-11T10:39:32.188Z,87.17
2018-07-11T10:42:00.298Z,87.11
2018-07-11T10:44:28.400Z,87.32
2018-07-11T10:47:00.693Z,86.77
2018-07-11T10:49:29.452Z,86.14
2018-07-11T10:51:57.596Z,85.96
2018-07-11T10:54:25.712Z,84.81
2018-07-11T10:56:53.809Z,83.04
2018-07-11T10:59:21.930Z,82.90
2018-07-11T11:01:50.116Z,82.00
2018-07-11T11:04:20.099Z,80.89
2018-07-11T11:06:48.468Z,78.90
2018-07-11T11:09:16.641Z,79.01
2018-07-11T11:11:44.766Z,81.45
2018-07-11T11:14:12.844Z,81.06
2018-07-11T11:16:40.956Z,82.60
2018-07-11T11:19:09.081Z,83.63
2018-07-11T11:21:37.254Z,84.39
2018-07-11T11:24:05.364Z,85.46
2018-07-11T11:26:33.466Z,86.75
2018-07-11T11:29:01.613Z,87.49
2018-07-11T11:31:29.752Z,87.44
2018-07-11T11:33:57.897Z,88.01
2018-07-11T11:36:26.051Z,87.47
2018-07-11T11:38:54.204Z,89.30
2018-07-11T11:41:22.360Z,89.27
2018-07-11T11:43:50.752Z,88.56
2018-07-11T11:46:18.904Z,88.22
2018-07-11T11:48:47.057Z,88.66
2018-07-11T11:51:15.274Z,88.00
2018-07-11T11:53:43.466Z,88.53
2018-07-11T11:56:11.650Z,88.31
2018-07-11T11:58:39.843Z,88.24
2018-07-11T12:01:07.994Z,86.76
2018-07-11T12:03:36.155Z,86.44
2018-07-11T12:06:04.290Z,86.62
2018-07-11T12:08:32.481Z,86.94
2018-07-11T12:11:00.584Z,85.16
2018-07-11T12:13:28.726Z,85.30
2018-07-11T12:15:56.832Z,85.22
2018-07-11T12:18:25.653Z,85.40
2018-07-11T12:20:56.988Z,86.76
2018-07-11T12:23:25.119Z,87.01
2018-07-11T12:26:03.197Z,87.28
2018-07-11T12:28:31.341Z,87.39
2018-07-11T12:30:59.464Z,86.97
2018-07-11T12:33:27.594Z,86.72
2018-07-11T12:35:55.713Z,86.52
2018-07-11T12:38:23.816Z,86.62
2018-07-11T12:40:51.930Z,86.60
2018-07-11T12:43:20.118Z,87.47
2018-07-11T12:45:48.258Z,87.23
2018-07-11T12:48:21.960Z,87.70
2018-07-11T12:50:50.086Z,87.11
2018-07-11T12:53:18.246Z,86.25
2018-07-11T12:55:46.558Z,86.35
2018-07-11T12:58:15.632Z,85.91
2018-07-11T13:00:43.751Z,86.60
2018-07-11T13:03:11.826Z,86.53
2018-07-11T13:05:39.937Z,86.91
2018-07-11T13:08:08.051Z,87.48
2018-07-11T13:10:36.137Z,86.29
2018-07-11T13:13:04.224Z,86.90
2018-07-11T13:15:32.351Z,87.26
2018-07-11T13:18:00.479Z,87.11
2018-07-11T13:20:28.597Z,85.15
2018-07-11T13:22:56.731Z,84.88
2018-07-11T13:25:24.871Z,84.92
2018-07-11T13:27:53.566Z,83.09
2018-07-11T13:30:22.257Z,80.22
2018-07-11T13:32:50.346Z,82.28
2018-07-11T13:35:18.452Z,83.61
2018-07-11T13:37:46.544Z,83.67
2018-07-11T13:40:14.672Z,83.63
2018-07-11T13:42:42.776Z,84.72
2018-07-11T13:45:10.895Z,85.00
2018-07-11T13:47:39.018Z,84.96
2018-07-11T13:50:07.176Z,85.53
2018-07-11T13:52:35.337Z,86.37
2018-07-11T13:55:03.489Z,86.75
2018-07-11T13:57:31.560Z,86.04
2018-07-11T13:59:59.689Z,87.73
2018-07-11T14:02:27.850Z,86.78
2018-07-11T14:04:55.990Z,87.61
2018-07-11T14:07:24.174Z,88.79
2018-07-11T14:09:52.285Z,88.51
2018-07-11T14:12:20.451Z,88.13
2018-07-11T14:14:48.586Z,88.46
2018-07-11T14:17:16.750Z,88.92
2018-07-11T14:19:44.897Z,88.95
2018-07-11T14:22:13.061Z,89.44
2018-07-11T14:24:41.242Z,88.42
2018-07-11T14:27:09.413Z,89.22
2018-07-11T14:29:37.551Z,88.30
2018-07-11T14:32:05.676Z,88.41
2018-07-11T14:34:33.809Z,87.45
2018-07-11T14:37:02.052Z,87.54
2018-07-11T14:39:30.181Z,86.53
2018-07-11T14:41:58.310Z,86.99
2018-07-11T14:44:26.408Z,86.88
2018-07-11T14:46:54.536Z,85.66
2018-07-11T14:49:22.661Z,85.71
2018-07-11T14:51:50.836Z,86.11
2018-07-11T14:54:18.924Z,85.14
2018-07-11T14:56:47.685Z,86.06
2018-07-11T14:59:15.871Z,86.42
2018-07-11T15:01:44.077Z,85.61
2018-07-11T15:04:12.247Z,86.00
2018-07-11T15:06:40.377Z,86.51
2018-07-11T15:09:08.888Z,86.20
2018-07-11T15:11:36.875Z,86.30
2018-07-11T15:14:05.070Z,86.77
2018-07-11T15:16:33.242Z,86.97
2018-07-11T15:19:01.403Z,86.89
2018-07-11T15:21:30.011Z,87.42
2018-07-11T15:23:58.179Z,87.66
2018-07-11T15:26:26.616Z,88.10
2018-07-11T15:28:54.937Z,88.67
2018-07-11T15:31:23.217Z,87.95
2018-07-11T15:33:52.161Z,88.03
2018-07-11T15:36:20.313Z,87.58
2018-07-11T15:38:48.451Z,87.98
2018-07-11T15:41:17.287Z,87.33
2018-07-11T15:43:46.220Z,86.89
2018-07-11T15:46:14.368Z,86.22
2018-07-11T15:48:42.521Z,87.15
2018-07-11T15:51:10.736Z,86.27
2018-07-11T15:53:38.837Z,87.01
2018-07-11T15:56:06.934Z,86.48
2018-07-11T15:58:37.248Z,86.19
2018-07-11T16:01:07.557Z,86.51
2018-07-11T16:03:39.561Z,86.58
2018-07-11T16:06:08.069Z,86.67
2018-07-11T16:08:36.279Z,86.17
2018-07-11T16:11:04.626Z,86.35
2018-07-11T16:13:32.849Z,86.78
2018-07-11T16:16:00.946Z,87.23
2018-07-11T16:18:29.374Z,86.85
2018-07-11T16:20:57.475Z,86.78
2018-07-11T16:23:25.612Z,86.17
2018-07-11T16:25:53.801Z,87.53
2018-07-11T16:28:21.912Z,87.54
2018-07-11T16:30:50.047Z,87.26
2018-07-11T16:33:18.201Z,86.10
2018-07-11T16:35:46.316Z,85.71
2018-07-11T16:38:14.477Z,86.34
2018-07-11T16:40:42.636Z,86.83
2018-07-11T16:43:10.859Z,87.66
2018-07-11T16:45:38.953Z,87.91
2018-07-11T16:48:07.039Z,87.04
2018-07-11T16:50:35.844Z,86.85
2018-07-11T16:53:03.993Z,87.55
2018-07-11T16:55:35.047Z,88.03
2018-07-11T16:58:03.171Z,88.03
2018-07-11T17:00:33.085Z,88.94
2018-07-11T17:03:05.411Z,88.80
2018-07-11T17:05:51.493Z,88.77
2018-07-11T17:08:30.240Z,89.10
2018-07-11T17:11:08.648Z,89.20
2018-07-11T17:13:36.776Z,89.52
2018-07-11T17:16:04.955Z,89.22
2018-07-11T17:18:40.233Z,89.44
2018-07-11T17:21:09.935Z,89.74
2018-07-11T17:23:48.163Z,89.36
2018-07-11T17:26:16.759Z,89.98
2018-07-11T17:28:44.961Z,89.73
2018-07-11T17:31:13.052Z,90.37
2018-07-11T17:33:41.316Z,90.29
2018-07-11T17:36:09.470Z,89.46
2018-07-11T17:38:37.616Z,89.68
2018-07-11T17:41:05.772Z,89.80
2018-07-11T17:43:36.717Z,90.10
2018-07-11T17:46:05.368Z,90.27
2018-07-11T17:48:45.196Z,89.95
2018-07-11T17:51:20.428Z,90.23
2018-07-11T17:53:54.873Z,89.94
2018-07-11T17:56:27.030Z,89.78
2018-07-11T17:58:56.491Z,90.04
2018-07-11T18:01:38.156Z,90.07
2018-07-11T18:05:26.409Z,90.74
2018-07-11T18:07:56.062Z,90.30
2018-07-11T18:10:36.903Z,90.33
2018-07-11T18:13:15.769Z,89.87
2018-07-11T18:15:56.217Z,90.38
2018-07-11T18:18:33.499Z,90.21
2018-07-11T18:23:16.763Z,90.49
2018-07-11T18:26:02.234Z,90.76
2018-07-11T18:30:46.425Z,90.97
2018-07-11T18:33:21.263Z,90.80
2018-07-11T18:35:58.060Z,91.17
2018-07-11T18:39:08.445Z,91.15
2018-07-11T18:41:53.458Z,91.44
2018-07-11T18:44:27.616Z,91.52
2018-07-11T18:49:10.006Z,91.88
2018-07-11T18:51:47.425Z,91.66
2018-07-11T18:54:22.600Z,91.83
2018-07-11T18:57:10.409Z,92.14
2018-07-11T19:00:50.208Z,92.25
2018-07-11T19:03:30.605Z,91.62
2018-07-11T19:06:10.474Z,92.51
2018-07-11T19:08:49.958Z,92.15
2018-07-11T19:11:22.843Z,92.68
2018-07-11T19:13:53.012Z,91.94
2018-07-11T19:16:33.296Z,91.88
2018-07-11T19:19:08.289Z,92.54
2018-07-11T19:21:48.308Z,92.37
2018-07-11T19:24:18.463Z,92.54
2018-07-11T19:27:51.771Z,92.81
2018-07-11T19:30:29.140Z,91.98
2018-07-11T19:33:21.257Z,92.28
2018-07-11T19:35:58.038Z,92.80
2018-07-11T19:38:36.278Z,93.25
2018-07-11T19:41:17.502Z,93.37
2018-07-11T19:43:56.911Z,93.06
2018-07-11T19:46:38.018Z,93.36
2018-07-11T19:49:18.144Z,93.58
2018-07-11T19:52:01.385Z,93.11
2018-07-11T19:54:43.258Z,93.22
2018-07-11T19:57:11.420Z,93.36
2018-07-11T19:59:40.354Z,93.60
2018-07-11T20:02:08.522Z,93.78
2018-07-11T20:04:36.906Z,93.42
2018-07-11T20:07:05.164Z,92.97
2018-07-11T20:09:33.314Z,93.02
2018-07-11T20:12:01.467Z,93.29
2018-07-11T20:14:29.636Z,93.48
2018-07-11T20:16:57.750Z,93.74
2018-07-11T20:19:25.890Z,94.11
2018-07-11T20:21:54.079Z,93.81
2018-07-11T20:24:22.451Z,93.80
2018-07-11T20:26:50.588Z,93.87
2018-07-11T20:29:18.748Z,93.78
2018-07-11T20:31:46.919Z,93.78
2018-07-11T20:34:15.038Z,93.76
2018-07-11T20:36:43.136Z,93.38
2018-07-11T20:39:11.711Z,93.68
2018-07-11T20:41:39.865Z,93.61
2018-07-11T20:44:08.008Z,93.80
2018-07-11T20:46:36.171Z,93.67
2018-07-11T20:49:09.503Z,93.27
2018-07-11T20:51:37.621Z,93.76
2018-07-11T20:54:05.885Z,94.00
2018-07-11T20:56:34.093Z,94.07
2018-07-11T20:59:13.613Z,94.07
2018-07-11T21:01:53.288Z,93.96
2018-07-11T21:04:36.512Z,94.06
2018-07-11T21:07:43.352Z,93.80
2018-07-11T21:10:40.016Z,93.67
2018-07-11T21:13:16.737Z,94.03
2018-07-11T21:15:56.318Z,94.26
2018-07-11T21:18:47.967Z,94.33
2018-07-11T21:21:16.211Z,93.99
2018-07-11T21:23:44.331Z,94.57
2018-07-11T21:26:12.474Z,94.35
2018-07-11T21:28:40.638Z,94.33
2018-07-11T21:31:08.749Z,93.85
2018-07-11T21:33:36.877Z,93.81
2018-07-11T21:36:05.049Z,93.80
2018-07-11T21:38:33.173Z,93.99
2018-07-11T21:41:01.280Z,93.72
2018-07-11T21:43:29.429Z,93.95
2018-07-11T21:45:57.685Z,93.94
2018-07-11T21:48:25.892Z,93.99
2018-07-11T21:50:54.032Z,94.00
2018-07-11T21:53:22.185Z,93.83
2018-07-11T21:55:50.354Z,94.18
2018-07-11T21:58:18.898Z,94.26
2018-07-11T22:00:47.079Z,93.91
2018-07-11T22:03:15.774Z,93.79
2018-07-11T22:05:43.957Z,94.15
2018-07-11T22:08:12.070Z,94.34
2018-07-11T22:10:40.510Z,94.57
2018-07-11T22:13:09.095Z,94.67
2018-07-11T22:15:37.253Z,94.17
2018-07-11T22:18:17.218Z,94.17
2018-07-11T22:20:44.368Z,94.36
2018-07-11T22:23:11.472Z,94.77
2018-07-11T22:25:38.576Z,94.80
2018-07-11T22:28:05.695Z,94.69
2018-07-11T22:30:32.827Z,94.44
2018-07-11T22:32:59.953Z,94.64
2018-07-11T22:35:27.103Z,94.58
2018-07-11T22:37:54.240Z,94.45
2018-07-11T22:40:21.353Z,94.57
2018-07-11T22:42:48.528Z,94.98
2018-07-11T22:45:15.648Z,94.72
2018-07-11T22:47:42.770Z,95.04
2018-07-11T22:50:09.896Z,95.07
2018-07-11T22:52:37.088Z,95.08
2018-07-11T22:55:04.158Z,94.69
2018-07-11T22:57:31.276Z,95.14
2018-07-11T22:59:58.403Z,94.72
2018-07-11T23:02:25.518Z,94.58
2018-07-11T23:04:52.645Z,94.72
2018-07-11T23:07:19.784Z,94.76
2018-07-11T23:09:46.960Z,94.92
2018-07-11T23:12:14.084Z,94.96
2018-07-11T23:14:41.225Z,94.67
2018-07-11T23:17:08.353Z,94.94
2018-07-11T23:19:35.442Z,94.71
2018-07-11T23:22:02.558Z,94.93
2018-07-11T23:24:29.850Z,94.51
2018-07-11T23:26:56.974Z,94.50
2018-07-11T23:29:24.095Z,94.66
2018-07-11T23:31:51.193Z,94.44
2018-07-11T23:34:18.323Z,94.44
2018-07-11T23:36:45.431Z,94.25
2018-07-11T23:39:12.549Z,94.35
2018-07-11T23:41:39.678Z,94.48
2018-07-11T23:44:06.770Z,94.37
2018-07-11T23:46:33.858Z,94.30
2018-07-11T23:49:00.955Z,94.30
2018-07-11T23:51:28.501Z,94.14
2018-07-11T23:53:55.648Z,94.21
2018-07-11T23:56:22.760Z,94.52
2018-07-11T23:58:49.845Z,94.22
